Terminal Aerodrome Forecast
Issued by NWS

Home | Current Version | Previous Version | Graphics & Text | Print | Product List | Glossary On
Versions: 1 2 3 4 5 6 7 8 9 10 11 12 13 14 15 16 17 18 19 20 21 22 23 24 25 26 27 28
665
FTUS45 KGGW 281125 AAA
TAFGDV
TAF AMD
KGDV 281125Z 2811/2912 VRB05KT 6SM BR SCT005 BKN050
      TEMPO 2812/2815 4SM BR BKN005
     FM281600 21006KT P6SM VCSH BKN050
     FM281800 26009KT P6SM -SHRA BKN045
     FM282100 30012KT P6SM -SHRA BKN060
     FM290000 31012KT P6SM FEW200
     FM290300 31007KT P6SM FEW250
      AMD LTD TO CLD VIS AND WIND=

USA.gov is the U.S. government's official web portal to all federal, state and local government web resources and services.